Météo Nord-Pas-de-Calais   La météo au plus près de chez vous

Station météorologique

Observations météo à Auch (32013)

32013005 122 m Dernier relevé à 21:30
25.7°C
Humidité 40 % Vent 5.4 km/h 1019.5 hPa

Journée consultée

Dimanche 6 Septembre 2026

Synthèse de la journée

Périodes de référence en UTC

Température maximale

38.4°C

à 15:00

06h 06h

Température minimale

17.8°C

à 03:36

18h 18h

Rafale maximale

29 km/h

à 17:48

00h 00h

Précipitations

0 mm

Cumul quotidien

06h 06h

Ensoleillement

7h 18 mins

Durée quotidienne

00h 00h

Graphiques de la journée

Heure locale Réduire

Données détaillées

Relevés météo

Pas de 6 minutes Afficher les relevés infra-horaires
Relevés météo détaillés à Auch pour le Dimanche 6 Septembre 2026
Heure Température °C Point de rosée °C Humidité % Vent moyen (raf.), km/h Précipitations mm Température à 10 cm °C Température à 20 cm °C Température à 50 cm °C Température à 100 cm °C Visibilité m État du sol   Hauteur neige cm Ensoleillement min Rayonnement global W/m² Pression hPa
21:30 25.7 °C 16.3 °C 56 % 6 km/h (12 km/h) 0 mm0 mm 25.3 °C 24.3 °C 22.9 °C 21.8 °C 20000 m 0   0 cm 0 min 0 W/m² 1020.9 hPa
21:24 25.5 °C 16.1 °C 56 % 5 km/h (9 km/h) 0 mm0 mm 25.3 °C 24.3 °C 22.9 °C 21.7 °C 20000 m 0   0 cm 0 min 0 W/m² 1020.7 hPa
21:18 26.2 °C 15.9 °C 53 % 6 km/h (7 km/h) 0 mm0 mm 25.4 °C 24.3 °C 22.8 °C 21.7 °C 20000 m 0   0 cm 0 min 0 W/m² 1020.5 hPa
21:12 26.8 °C 16.1 °C 52 % 6 km/h (7 km/h) 0 mm0 mm 25.4 °C 24.3 °C 22.8 °C 21.7 °C 20000 m 0   0 cm 0 min 0 W/m² 1020.3 hPa
21:06 27.3 °C 16 °C 50 % 5 km/h (6 km/h) 0 mm0 mm 25.4 °C 24.3 °C 22.9 °C 21.7 °C 20000 m 0   0 cm 0 min 0 W/m² 1020 hPa
21:00 28.1 °C 16.7 °C 50 % 4 km/h (6 km/h) 0 mm0 mm 25.4 °C 24.3 °C 22.9 °C 21.7 °C 20000 m 0   0 cm 0 min 0 W/m² 1019.9 hPa
20:54 29 °C 16.5 °C 47 % 3 km/h (4 km/h) 0 mm0 mm 25.4 °C 24.3 °C 22.8 °C 21.7 °C 19140 m 0   0 cm 0 min 0 W/m² 1019.7 hPa
20:48 29.5 °C 16 °C 44 % 3 km/h (5 km/h) 0 mm0 mm 25.5 °C 24.3 °C 22.9 °C 21.7 °C 19140 m 0   0 cm 0 min 0 W/m² 1019.5 hPa
20:42 29.8 °C 15.9 °C 43 % 5 km/h (8 km/h) 0 mm0 mm 25.5 °C 24.2 °C 22.8 °C 21.7 °C 20000 m 0   0 cm 0 min 0 W/m² 1019.5 hPa
20:36 30.5 °C 15.8 °C 41 % 5 km/h (9 km/h) 0 mm0 mm 25.5 °C 24.2 °C 22.8 °C 21.7 °C 20000 m 0   0 cm 0 min 0 W/m² 1019.6 hPa
20:30 31 °C 15.8 °C 40 % 5 km/h (9 km/h) 0 mm0 mm 25.5 °C 24.2 °C 22.8 °C 21.7 °C 20000 m 0   0 cm 0 min 0 W/m² 1019.5 hPa
20:24 31.3 °C 16.1 °C 40 % 6 km/h (10 km/h) 0 mm0 mm 25.5 °C 24.2 °C 22.9 °C 21.7 °C 20000 m 0   0 cm 0 min 0 W/m² 1019.4 hPa
20:18 31.5 °C 15.9 °C 39 % 7 km/h (13 km/h) 0 mm0 mm 25.5 °C 24.2 °C 22.8 °C 21.7 °C 20000 m 0   0 cm 0 min 0 W/m² 1019.4 hPa
20:12 31.8 °C 15.7 °C 38 % 8 km/h (13 km/h) 0 mm0 mm 25.5 °C 24.2 °C 22.9 °C 21.7 °C 20000 m 0   0 cm 0 min 0 W/m² 1019.4 hPa
20:06 32.1 °C 15.6 °C 37 % 8 km/h (13 km/h) 0 mm0 mm 25.5 °C 24.2 °C 22.8 °C 21.7 °C 20000 m 0   0 cm 3 min 4.1 W/m² 1019.2 hPa
20:00 32.5 °C 15.5 °C 36 % 9 km/h (16 km/h) 0 mm0 mm 25.5 °C 24.2 °C 22.8 °C 21.7 °C 20000 m 0   0 cm 6 min 12.4 W/m² 1019.2 hPa
19:54 32.8 °C 15.8 °C 36 % 9 km/h (14 km/h) 0 mm0 mm 25.5 °C 24.2 °C 22.8 °C 21.7 °C 20000 m 0   0 cm 6 min 19.3 W/m² 1019 hPa
19:48 33.1 °C 15.6 °C 35 % 9 km/h (14 km/h) 0 mm0 mm 25.5 °C 24.2 °C 22.8 °C 21.7 °C 20000 m 0   0 cm 6 min 26.2 W/m² 1018.9 hPa
19:42 33.4 °C 15.4 °C 34 % 9 km/h (18 km/h) 0 mm0 mm 25.5 °C 24.2 °C 22.8 °C 21.7 °C 20000 m 0   0 cm 6 min 34.3 W/m² 1018.8 hPa
19:36 33.6 °C 15.1 °C 33 % 9 km/h (18 km/h) 0 mm0 mm 25.5 °C 24.2 °C 22.8 °C 21.7 °C 20000 m 0   0 cm 6 min 41.1 W/m² 1018.8 hPa
19:30 33.8 °C 15.3 °C 33 % 9 km/h (17 km/h) 0 mm0 mm 25.5 °C 24.1 °C 22.8 °C 21.7 °C 20000 m 0   0 cm 6 min 47.3 W/m² 1018.9 hPa
19:24 33.9 °C 14.9 °C 32 % 10 km/h (17 km/h) 0 mm0 mm 25.5 °C 24.1 °C 22.8 °C 21.7 °C 20000 m 0   0 cm 6 min 53.6 W/m² 1018.7 hPa
19:18 34.1 °C 15.1 °C 32 % 10 km/h (19 km/h) 0 mm0 mm 25.5 °C 24.1 °C 22.8 °C 21.7 °C 19160 m 0   0 cm 6 min 61.5 W/m² 1018.8 hPa
19:12 34 °C 15 °C 32 % 11 km/h (19 km/h) 0 mm0 mm 25.5 °C 24.1 °C 22.8 °C 21.7 °C 19160 m 0   0 cm 6 min 69.1 W/m² 1018.7 hPa
19:06 34.3 °C 15.2 °C 32 % 10 km/h (16 km/h) 0 mm0 mm 25.5 °C 24.1 °C 22.8 °C 21.7 °C 19750 m 0   0 cm 6 min 78.5 W/m² 1018.6 hPa
19:00 34.5 °C 14.9 °C 31 % 9 km/h (15 km/h) 0 mm0 mm 25.5 °C 24.1 °C 22.8 °C 21.7 °C 19750 m 0   0 cm 6 min 95.5 W/m² 1018.5 hPa
18:54 34.5 °C 15.4 °C 32 % 10 km/h (19 km/h) 0 mm0 mm 25.5 °C 24.1 °C 22.8 °C 21.7 °C 20000 m 0   0 cm 6 min 112.9 W/m² 1018.5 hPa
18:48 34.3 °C 15.2 °C 32 % 12 km/h (21 km/h) 0 mm0 mm 25.5 °C 24 °C 22.8 °C 21.7 °C 20000 m 0   0 cm 6 min 121.3 W/m² 1018.5 hPa
18:42 34.1 °C 15.1 °C 32 % 12 km/h (20 km/h) 0 mm0 mm 25.5 °C 24 °C 22.8 °C 21.7 °C 19650 m 0   0 cm 6 min 96.4 W/m² 1018.5 hPa
18:36 33.9 °C 14.4 °C 31 % 12 km/h (21 km/h) 0 mm0 mm 25.5 °C 24 °C 22.8 °C 21.7 °C 18850 m 0   0 cm 1 min 59.4 W/m² 1018.6 hPa
18:30 34 °C 14 °C 30 % 12 km/h (23 km/h) 0 mm0 mm 25.5 °C 24 °C 22.8 °C 21.7 °C 20000 m 0   0 cm 0 min 53 W/m² 1018.5 hPa
18:24 34.3 °C 14.7 °C 31 % 11 km/h (20 km/h) 0 mm0 mm 25.5 °C 24 °C 22.8 °C 21.7 °C 20000 m 0   0 cm 0 min 61.5 W/m² 1018.4 hPa
18:18 34.3 °C 14.2 °C 30 % 15 km/h (26 km/h) 0 mm0 mm 25.4 °C 24 °C 22.8 °C 21.7 °C 20000 m 0   0 cm 1 min 76.3 W/m² 1018.4 hPa
18:12 34.4 °C 13.8 °C 29 % 15 km/h (26 km/h) 0 mm0 mm 25.4 °C 24 °C 22.8 °C 21.7 °C 20000 m 0   0 cm 0 min 66.6 W/m² 1018.2 hPa
18:06 34.6 °C 14 °C 29 % 13 km/h (22 km/h) 0 mm0 mm 25.5 °C 24 °C 22.9 °C 21.7 °C 20000 m 0   0 cm 0 min 58.2 W/m² 1018.2 hPa
18:00 34.7 °C 14.1 °C 29 % 14 km/h (23 km/h) 0 mm0 mm 25.5 °C 24 °C 22.9 °C 21.8 °C 20000 m 0   0 cm 0 min 62.8 W/m² 1018 hPa
17:54 35 °C 13.8 °C 28 % 17 km/h (29 km/h) 0 mm0 mm 25.4 °C 23.9 °C 22.8 °C 21.7 °C 19740 m 0   0 cm 0 min 72.4 W/m² 1018 hPa
17:48 35.8 °C 13.9 °C 27 % 16 km/h (29 km/h) 0 mm0 mm 25.4 °C 23.9 °C 22.8 °C 21.7 °C 19740 m 0   0 cm 5 min 161.2 W/m² 1018 hPa
17:42 36.1 °C 14.1 °C 27 % 15 km/h (23 km/h) 0 mm0 mm 25.4 °C 23.9 °C 22.9 °C 21.7 °C 20000 m 0   0 cm 6 min 186.4 W/m² 1017.8 hPa
17:36 35.8 °C 14.5 °C 28 % 15 km/h (23 km/h) 0 mm0 mm 25.4 °C 23.9 °C 22.9 °C 21.7 °C 20000 m 0   0 cm 6 min 183.1 W/m² 1017.8 hPa
17:30 35.3 °C 13.5 °C 27 % 13 km/h (22 km/h) 0 mm0 mm 25.4 °C 23.8 °C 22.8 °C 21.7 °C 19990 m 0   0 cm 0 min 89.4 W/m² 1017.9 hPa
17:24 36.1 °C 13.6 °C 26 % 11 km/h (19 km/h) 0 mm0 mm 25.3 °C 23.8 °C 22.9 °C 21.7 °C 19990 m 0   0 cm 6 min 163.6 W/m² 1017.8 hPa
17:18 35.8 °C 13.9 °C 27 % 10 km/h (16 km/h) 0 mm0 mm 25.3 °C 23.8 °C 22.9 °C 21.7 °C 20000 m 0   0 cm 6 min 191.7 W/m² 1017.6 hPa
17:12 35.3 °C 13.5 °C 27 % 11 km/h (18 km/h) 0 mm0 mm 25.3 °C 23.8 °C 22.8 °C 21.7 °C 20000 m 0   0 cm 4 min 147.5 W/m² 1017.6 hPa
17:06 35.2 °C 13.4 °C 27 % 11 km/h (19 km/h) 0 mm0 mm 25.3 °C 23.8 °C 22.9 °C 21.8 °C 20000 m 0   0 cm 1 min 109.1 W/m² 1017.7 hPa
17:00 35.2 °C 13.4 °C 27 % 10 km/h (19 km/h) 0 mm0 mm 25.3 °C 23.8 °C 22.9 °C 21.7 °C 20000 m 0   0 cm 0 min 98.5 W/m² 1017.7 hPa
16:54 35.1 °C 13.9 °C 28 % 12 km/h (20 km/h) 0 mm0 mm 25.3 °C 23.7 °C 22.9 °C 21.7 °C 20000 m 0   0 cm 0 min 70.2 W/m² 1017.8 hPa
16:48 35.2 °C 13.4 °C 27 % 12 km/h (20 km/h) 0 mm0 mm 25.3 °C 23.7 °C 22.9 °C 21.8 °C 20000 m 0   0 cm 0 min 69.6 W/m² 1017.8 hPa
16:42 35.5 °C 13.6 °C 27 % 11 km/h (20 km/h) 0 mm0 mm 25.2 °C 23.7 °C 22.9 °C 21.7 °C 20000 m 0   0 cm 0 min 78.2 W/m² 1017.8 hPa
16:36 35.6 °C 14.3 °C 28 % 12 km/h (21 km/h) 0 mm0 mm 25.2 °C 23.6 °C 22.9 °C 21.7 °C 20000 m 0   0 cm 0 min 94.6 W/m² 1017.8 hPa
16:30 35.6 °C 13.7 °C 27 % 13 km/h (21 km/h) 0 mm0 mm 25.2 °C 23.6 °C 22.9 °C 21.7 °C 20000 m 0   0 cm 0 min 95.6 W/m² 1017.9 hPa
16:24 35.7 °C 13.2 °C 26 % 15 km/h (23 km/h) 0 mm0 mm 25.1 °C 23.6 °C 22.9 °C 21.7 °C 20000 m 0   0 cm 0 min 85.2 W/m² 1017.8 hPa
16:18 35.8 °C 12.7 °C 25 % 15 km/h (23 km/h) 0 mm0 mm 25.1 °C 23.6 °C 22.8 °C 21.7 °C 20000 m 0   0 cm 0 min 88.6 W/m² 1017.7 hPa
16:12 36.1 °C 13.6 °C 26 % 13 km/h (23 km/h) 0 mm0 mm 25.1 °C 23.6 °C 22.9 °C 21.7 °C 20000 m 0   0 cm 0 min 100.7 W/m² 1017.7 hPa
16:06 36.5 °C 13.3 °C 25 % 13 km/h (23 km/h) 0 mm0 mm 25.1 °C 23.5 °C 22.8 °C 21.7 °C 20000 m 0   0 cm 0 min 118.7 W/m² 1017.7 hPa
16:00 36.8 °C 13.5 °C 25 % 14 km/h (22 km/h) 0 mm0 mm 25 °C 23.5 °C 22.9 °C 21.7 °C 20000 m 0   0 cm 0 min 142 W/m² 1017.6 hPa
15:54 37.2 °C 13.9 °C 25 % 14 km/h (22 km/h) 0 mm0 mm 25 °C 23.5 °C 22.9 °C 21.7 °C 20000 m 0   0 cm 0 min 150 W/m² 1017.6 hPa
15:48 37.3 °C 14 °C 25 % 15 km/h (27 km/h) 0 mm0 mm 25 °C 23.5 °C 22.9 °C 21.8 °C 19840 m 0   0 cm 1 min 162.8 W/m² 1017.5 hPa
15:42 37.8 °C 14.4 °C 25 % 15 km/h (27 km/h) 0 mm0 mm 24.9 °C 23.4 °C 22.9 °C 21.7 °C 19840 m 0   0 cm 6 min 249.6 W/m² 1017.5 hPa
15:36 37.5 °C 13.5 °C 24 % 13 km/h (24 km/h) 0 mm0 mm 24.9 °C 23.4 °C 22.9 °C 21.7 °C 19690 m 0   0 cm 1 min 176.2 W/m² 1017.5 hPa
15:30 37.6 °C 13.6 °C 24 % 13 km/h (26 km/h) 0 mm0 mm 24.8 °C 23.4 °C 22.9 °C 21.7 °C 19690 m 0   0 cm 3 min 189.7 W/m² 1017.5 hPa
15:24 37.1 °C 13.2 °C 24 % 15 km/h (26 km/h) 0 mm0 mm 24.8 °C 23.4 °C 22.9 °C 21.7 °C 20000 m 0   0 cm 1 min 140.5 W/m² 1017.5 hPa
15:18 37.2 °C 13.3 °C 24 % 15 km/h (24 km/h) 0 mm0 mm 24.8 °C 23.4 °C 22.9 °C 21.7 °C 20000 m 0   0 cm 0 min 127.8 W/m² 1017.3 hPa
15:12 37.4 °C 12.8 °C 23 % 14 km/h (24 km/h) 0 mm0 mm 24.7 °C 23.4 °C 22.9 °C 21.7 °C 19540 m 0   0 cm 4 min 194.8 W/m² 1017.2 hPa
15:06 37.4 °C 13.4 °C 24 % 10 km/h (22 km/h) 0 mm0 mm 24.6 °C 23.3 °C 22.9 °C 21.7 °C 20000 m 0   0 cm 1 min 154.7 W/m² 1017.3 hPa
15:00 37.4 °C 12.8 °C 23 % 11 km/h (23 km/h) 0 mm0 mm 24.6 °C 23.3 °C 22.8 °C 21.7 °C 20000 m 0   0 cm 0 min 114.9 W/m² 1017.3 hPa
14:54 37.4 °C 14.7 °C 26 % 12 km/h (23 km/h) 0 mm0 mm 24.5 °C 23.3 °C 22.9 °C 21.7 °C 20000 m 0   0 cm 0 min 138.3 W/m² 1017.3 hPa
14:48 37.5 °C 14.1 °C 25 % 7 km/h (15 km/h) 0 mm0 mm 24.4 °C 23.3 °C 22.9 °C 21.7 °C 20000 m 0   0 cm 1 min 158.5 W/m² 1017.4 hPa
14:42 38 °C 14.6 °C 25 % 5 km/h (12 km/h) 0 mm0 mm 24.4 °C 23.3 °C 22.9 °C 21.7 °C 19880 m 0   0 cm 0 min 130.8 W/m² 1017.4 hPa
14:36 38.3 °C 15.4 °C 26 % 3 km/h (9 km/h) 0 mm0 mm 24.3 °C 23.3 °C 22.9 °C 21.7 °C 19880 m 0   0 cm 6 min 299.6 W/m² 1017.3 hPa
14:30 37.8 °C 15 °C 26 % 5 km/h (12 km/h) 0 mm0 mm 24.2 °C 23.3 °C 22.9 °C 21.7 °C 20000 m 0   0 cm 6 min 285.2 W/m² 1017.3 hPa
14:24 37.5 °C 15.9 °C 28 % 5 km/h (12 km/h) 0 mm0 mm 24.2 °C 23.2 °C 22.9 °C 21.7 °C 20000 m 0   0 cm 6 min 301.8 W/m² 1017.4 hPa
14:18 36.9 °C 15.4 °C 28 % 5 km/h (10 km/h) 0 mm0 mm 24.1 °C 23.2 °C 22.9 °C 21.7 °C 19700 m 0   0 cm 4 min 240.8 W/m² 1017.4 hPa
14:12 36.7 °C 15.8 °C 29 % 6 km/h (10 km/h) 0 mm0 mm 24 °C 23.2 °C 22.9 °C 21.7 °C 19580 m 0   0 cm 6 min 287.7 W/m² 1017.4 hPa
14:06 36.1 °C 15.3 °C 29 % 6 km/h (15 km/h) 0 mm0 mm 24 °C 23.2 °C 22.9 °C 21.7 °C 19880 m 0   0 cm 5 min 264.5 W/m² 1017.5 hPa
14:00 36 °C 15.2 °C 29 % 6 km/h (15 km/h) 0 mm0 mm 24 °C 23.2 °C 22.9 °C 21.7 °C 20000 m 0   0 cm 4 min 222.7 W/m² 1017.5 hPa
13:54 36.1 °C 16.8 °C 32 % 6 km/h (13 km/h) 0 mm0 mm 23.9 °C 23.1 °C 22.9 °C 21.7 °C 20000 m 0   0 cm 6 min 291.1 W/m² 1017.6 hPa
13:48 35.7 °C 15.4 °C 30 % 7 km/h (13 km/h) 0 mm0 mm 23.9 °C 23.2 °C 22.9 °C 21.7 °C 20000 m 0   0 cm 6 min 287 W/m² 1017.7 hPa
13:42 35.7 °C 16 °C 31 % 7 km/h (10 km/h) 0 mm0 mm 23.8 °C 23.2 °C 22.9 °C 21.7 °C 20000 m 0   0 cm 6 min 286.8 W/m² 1017.8 hPa
13:36 35.9 °C 16.6 °C 32 % 6 km/h (10 km/h) 0 mm0 mm 23.8 °C 23.2 °C 22.9 °C 21.7 °C 19660 m 0   0 cm 6 min 285 W/m² 1017.9 hPa
13:30 35.4 °C 17.1 °C 34 % 6 km/h (17 km/h) 0 mm0 mm 23.6 °C 23.1 °C 22.9 °C 21.7 °C 19660 m 0   0 cm 6 min 284.6 W/m² 1018 hPa
13:24 35.4 °C 16.2 °C 32 % 7 km/h (17 km/h) 0 mm0 mm 23.6 °C 23.1 °C 22.9 °C 21.7 °C 17200 m 0   0 cm 6 min 284.9 W/m² 1018 hPa
13:18 35 °C 16.8 °C 34 % 6 km/h (11 km/h) 0 mm0 mm 23.5 °C 23.1 °C 22.9 °C 21.7 °C 19820 m 0   0 cm 6 min 283.9 W/m² 1018 hPa
13:12 35.2 °C 16.5 °C 33 % 6 km/h (11 km/h) 0 mm0 mm 23.5 °C 23.1 °C 22.9 °C 21.7 °C 18340 m 0   0 cm 6 min 279.4 W/m² 1018 hPa
13:06 34.9 °C 16.7 °C 34 % 4 km/h (10 km/h) 0 mm0 mm 23.5 °C 23.1 °C 22.9 °C 21.7 °C 17840 m 0   0 cm 6 min 277.1 W/m² 1018 hPa
13:00 34.8 °C 16.2 °C 33 % 4 km/h (9 km/h) 0 mm0 mm 23.4 °C 23.1 °C 22.9 °C 21.7 °C 19410 m 0   0 cm 6 min 275.4 W/m² 1018.1 hPa
12:54 34.6 °C 16.9 °C 35 % 4 km/h (9 km/h) 0 mm0 mm 23.4 °C 23.1 °C 22.9 °C 21.7 °C 20000 m 0   0 cm 6 min 273.7 W/m² 1018.2 hPa
12:48 34.2 °C 16.6 °C 35 % 2 km/h (5 km/h) 0 mm0 mm 23.3 °C 23.1 °C 22.9 °C 21.7 °C 19240 m 0   0 cm 6 min 266.9 W/m² 1018.4 hPa
12:42 33.8 °C 16.2 °C 35 % 5 km/h (16 km/h) 0 mm0 mm 23.3 °C 23.1 °C 22.9 °C 21.7 °C 19830 m 0   0 cm 6 min 268.5 W/m² 1018.5 hPa
12:36 33.5 °C 15.9 °C 35 % 6 km/h (16 km/h) 0 mm0 mm 23.2 °C 23.1 °C 22.9 °C 21.7 °C 20000 m 0   0 cm 6 min 266.8 W/m² 1018.6 hPa
12:30 33.4 °C 15.9 °C 35 % 4 km/h (9 km/h) 0 mm0 mm 23.2 °C 23.1 °C 22.9 °C 21.7 °C 20000 m 0   0 cm 6 min 255.4 W/m² 1018.7 hPa
12:24 32.9 °C 15.9 °C 36 % 5 km/h (13 km/h) 0 mm0 mm 23.2 °C 23.1 °C 22.9 °C 21.8 °C 20000 m 0   0 cm 6 min 251.9 W/m² 1018.7 hPa
12:18 33.1 °C 16 °C 36 % 5 km/h (11 km/h) 0 mm0 mm 23.1 °C 23.1 °C 22.9 °C 21.8 °C 20000 m 0   0 cm 6 min 239.3 W/m² 1018.8 hPa
12:12 32.8 °C 16.2 °C 37 % 3 km/h (9 km/h) 0 mm0 mm 23.1 °C 23.1 °C 22.9 °C 21.7 °C 20000 m 0   0 cm 6 min 249 W/m² 1018.8 hPa
12:06 32.4 °C 16.3 °C 38 % 3 km/h (9 km/h) 0 mm0 mm 23.1 °C 23.1 °C 22.9 °C 21.7 °C 20000 m 0   0 cm 6 min 216.4 W/m² 1018.8 hPa
12:00 32 °C 15.1 °C 36 % 4 km/h (9 km/h) 0 mm0 mm 23.1 °C 23.1 °C 22.9 °C 21.7 °C 20000 m 0   0 cm 6 min 222.5 W/m² 1019 hPa
11:54 31.7 °C 15.2 °C 37 % 5 km/h (10 km/h) 0 mm0 mm 23 °C 23.1 °C 22.9 °C 21.7 °C 20000 m 0   0 cm 6 min 227.2 W/m² 1019.1 hPa
11:48 31.6 °C 16 °C 39 % 6 km/h (12 km/h) 0 mm0 mm 23 °C 23.1 °C 22.9 °C 21.7 °C 20000 m 0   0 cm 6 min 222.9 W/m² 1019.1 hPa
11:42 31.1 °C 15.9 °C 40 % 7 km/h (12 km/h) 0 mm0 mm 23 °C 23.1 °C 22.9 °C 21.7 °C 20000 m 0   0 cm 6 min 234.9 W/m² 1019.2 hPa
11:36 30.6 °C 15.5 °C 40 % 7 km/h (13 km/h) 0 mm0 mm 23 °C 23.1 °C 22.9 °C 21.7 °C 20000 m 0   0 cm 4 min 184.8 W/m² 1019.2 hPa
11:30 30.7 °C 14.8 °C 38 % 6 km/h (13 km/h) 0 mm0 mm 22.9 °C 23.1 °C 22.9 °C 21.7 °C 19780 m 0   0 cm 5 min 184.3 W/m² 1019.3 hPa
11:24 30.8 °C 14.8 °C 38 % 4 km/h (10 km/h) 0 mm0 mm 22.9 °C 23.1 °C 22.9 °C 21.7 °C 20000 m 0   0 cm 6 min 234.7 W/m² 1019.3 hPa
11:18 30.4 °C 15.3 °C 40 % 3 km/h (7 km/h) 0 mm0 mm 22.9 °C 23.1 °C 22.9 °C 21.7 °C 19710 m 0   0 cm 6 min 234.6 W/m² 1019.3 hPa
11:12 29.7 °C 14.7 °C 40 % 4 km/h (7 km/h) 0 mm0 mm 22.9 °C 23.1 °C 22.9 °C 21.7 °C 19590 m 0   0 cm 6 min 219.1 W/m² 1019.5 hPa
11:06 28.8 °C 15 °C 43 % 4 km/h (8 km/h) 0 mm0 mm 22.9 °C 23.2 °C 22.9 °C 21.8 °C 19880 m 0   0 cm 6 min 209.3 W/m² 1019.6 hPa
11:00 28.4 °C 14.2 °C 42 % 4 km/h (8 km/h) 0 mm0 mm 22.9 °C 23.1 °C 22.9 °C 21.7 °C 20000 m 0   0 cm 6 min 205.7 W/m² 1019.7 hPa
10:54 27.8 °C 14.1 °C 43 % 5 km/h (9 km/h) 0 mm0 mm 22.9 °C 23.1 °C 22.9 °C 21.7 °C 19950 m 0   0 cm 1 min 90.8 W/m² 1019.7 hPa
10:48 28.3 °C 14.5 °C 43 % 3 km/h (7 km/h) 0 mm0 mm 22.9 °C 23.2 °C 22.9 °C 21.7 °C 19950 m 0   0 cm 3 min 131.5 W/m² 1019.7 hPa
10:42 27.8 °C 13.7 °C 42 % 4 km/h (8 km/h) 0 mm0 mm 22.9 °C 23.2 °C 22.9 °C 21.7 °C 20000 m 0   0 cm 5 min 166.6 W/m² 1019.6 hPa
10:36 27.3 °C 14 °C 44 % 4 km/h (8 km/h) 0 mm0 mm 22.9 °C 23.2 °C 22.9 °C 21.7 °C 20000 m 0   0 cm 5 min 132.8 W/m² 1019.6 hPa
10:30 27.4 °C 14.4 °C 45 % 4 km/h (8 km/h) 0 mm0 mm 22.9 °C 23.2 °C 22.9 °C 21.7 °C 19960 m 0   0 cm 6 min 157.7 W/m² 1019.6 hPa
10:24 27 °C 14.4 °C 46 % 6 km/h (10 km/h) 0 mm0 mm 22.9 °C 23.2 °C 22.9 °C 21.8 °C 19960 m 0   0 cm 6 min 158.3 W/m² 1019.7 hPa
10:18 26.3 °C 14.4 °C 48 % 5 km/h (10 km/h) 0 mm0 mm 22.9 °C 23.2 °C 22.9 °C 21.8 °C 20000 m 0   0 cm 6 min 152.2 W/m² 1019.8 hPa
10:12 25.4 °C 13.9 °C 49 % 4 km/h (7 km/h) 0 mm0 mm 22.9 °C 23.2 °C 22.9 °C 21.7 °C 20000 m 0   0 cm 4 min 116.1 W/m² 1019.8 hPa
10:06 25.1 °C 13.9 °C 50 % 5 km/h (8 km/h) 0 mm0 mm 22.9 °C 23.2 °C 22.9 °C 21.7 °C 20000 m 0   0 cm 6 min 124.1 W/m² 1019.8 hPa
10:00 24.7 °C 13.9 °C 51 % 7 km/h (10 km/h) 0 mm0 mm 22.9 °C 23.3 °C 23 °C 21.8 °C 20000 m 0   0 cm 6 min 135.8 W/m² 1019.8 hPa
09:54 24.3 °C 14.1 °C 53 % 6 km/h (10 km/h) 0 mm0 mm 22.9 °C 23.2 °C 22.9 °C 21.7 °C 20000 m 0   0 cm 5 min 112.8 W/m² 1019.9 hPa
09:48 24.3 °C 13.5 °C 51 % 6 km/h (10 km/h) 0 mm0 mm 22.9 °C 23.2 °C 22.9 °C 21.7 °C 20000 m 0   0 cm 4 min 100.3 W/m² 1019.9 hPa
09:42 23.9 °C 13.4 °C 52 % 8 km/h (12 km/h) 0 mm0 mm 22.9 °C 23.2 °C 22.9 °C 21.7 °C 20000 m 0   0 cm 6 min 120.5 W/m² 1019.9 hPa
09:36 23.6 °C 13.5 °C 53 % 8 km/h (12 km/h) 0 mm0 mm 22.9 °C 23.2 °C 22.9 °C 21.7 °C 20000 m 0   0 cm 6 min 108.1 W/m² 1019.8 hPa
09:30 23 °C 13.7 °C 56 % 6 km/h (10 km/h) 0 mm0 mm 22.9 °C 23.2 °C 22.9 °C 21.7 °C 20000 m 0   0 cm 6 min 104.1 W/m² 1019.9 hPa
09:24 22.5 °C 13.8 °C 58 % 5 km/h (8 km/h) 0 mm0 mm 22.9 °C 23.3 °C 23 °C 21.8 °C 20000 m 0   0 cm 4 min 78.1 W/m² 1020 hPa
09:18 22 °C 14.1 °C 61 % 4 km/h (6 km/h) 0 mm0 mm 22.9 °C 23.3 °C 22.9 °C 21.7 °C 20000 m 0   0 cm 0 min 46.4 W/m² 1020.1 hPa
09:12 21.7 °C 14.3 °C 63 % 4 km/h (7 km/h) 0 mm0 mm 22.9 °C 23.3 °C 22.9 °C 21.7 °C 20000 m 0   0 cm 1 min 49.8 W/m² 1020 hPa
09:06 21.5 °C 14.2 °C 63 % 4 km/h (7 km/h) 0 mm0 mm 22.9 °C 23.3 °C 22.9 °C 21.7 °C 20000 m 0   0 cm 0 min 38.8 W/m² 1019.9 hPa
09:00 21.3 °C 14.2 °C 64 % 4 km/h (5 km/h) 0 mm0 mm 22.9 °C 23.3 °C 22.9 °C 21.7 °C 20000 m 0   0 cm 0 min 39.1 W/m² 1019.8 hPa
08:54 21 °C 14.2 °C 65 % 3 km/h (5 km/h) 0 mm0 mm 22.9 °C 23.3 °C 22.9 °C 21.7 °C 20000 m 0   0 cm 0 min 38.2 W/m² 1019.9 hPa
08:48 20.8 °C 14.2 °C 66 % 3 km/h (4 km/h) 0 mm0 mm 22.9 °C 23.3 °C 22.9 °C 21.7 °C 20000 m 0   0 cm 3 min 42 W/m² 1019.9 hPa
08:42 20.5 °C 13.9 °C 66 % 4 km/h (5 km/h) 0 mm0 mm 22.9 °C 23.3 °C 22.9 °C 21.7 °C 20000 m 0   0 cm 0 min 34.8 W/m² 1020 hPa
08:36 20.3 °C 14 °C 67 % 4 km/h (5 km/h) 0 mm0 mm 22.9 °C 23.3 °C 22.9 °C 21.7 °C 20000 m 0   0 cm 0 min 24 W/m² 1020.1 hPa
08:30 20.3 °C 14.2 °C 68 % 4 km/h (4 km/h) 0 mm0 mm 22.9 °C 23.3 °C 22.9 °C 21.7 °C 20000 m 0   0 cm 0 min 16.3 W/m² 1020 hPa
08:24 20.2 °C 14.1 °C 68 % 3 km/h (4 km/h) 0 mm0 mm 23 °C 23.3 °C 22.9 °C 21.7 °C 20000 m 0   0 cm 0 min 11.5 W/m² 1020 hPa
08:18 20 °C 13.9 °C 68 % 4 km/h (5 km/h) 0 mm0 mm 23 °C 23.3 °C 22.9 °C 21.7 °C 20000 m 0   0 cm 0 min 8.8 W/m² 1019.9 hPa
08:12 20 °C 14.1 °C 69 % 3 km/h (4 km/h) 0 mm0 mm 22.9 °C 23.4 °C 22.9 °C 21.7 °C 20000 m 0   0 cm 0 min 7.6 W/m² 1020 hPa
08:06 20 °C 14.1 °C 69 % 3 km/h (4 km/h) 0 mm0 mm 23 °C 23.3 °C 22.9 °C 21.7 °C 20000 m 0   0 cm 0 min 1.2 W/m² 1019.9 hPa
08:00 20.1 °C 13.5 °C 66 % 3 km/h (3 km/h) 0 mm0 mm 23 °C 23.4 °C 22.9 °C 21.7 °C 20000 m 0   0 cm 0 min 0 W/m² 1019.9 hPa
07:54 20.2 °C 14.6 °C 70 % 2 km/h (5 km/h) 0 mm0 mm 23 °C 23.4 °C 22.9 °C 21.7 °C 20000 m 0   0 cm 0 min 0 W/m² 1019.8 hPa
07:48 20.5 °C 13.7 °C 65 % 3 km/h (7 km/h) 0 mm0 mm 23 °C 23.4 °C 22.9 °C 21.7 °C 20000 m 0   0 cm 0 min 0 W/m² 1019.7 hPa
07:42 20.6 °C 13.1 °C 62 % 5 km/h (8 km/h) 0 mm0 mm 23 °C 23.4 °C 22.9 °C 21.7 °C 20000 m 0   0 cm 0 min 0 W/m² 1019.8 hPa
07:36 20.4 °C 12.6 °C 61 % 5 km/h (8 km/h) 0 mm0 mm 23 °C 23.4 °C 22.9 °C 21.7 °C 20000 m 0   0 cm 0 min 0 W/m² 1019.8 hPa
07:30 20 °C 13.5 °C 66 % 4 km/h (8 km/h) 0 mm0 mm 23 °C 23.4 °C 22.9 °C 21.7 °C 20000 m 0   0 cm 0 min 0 W/m² 1019.8 hPa
07:24 20.2 °C 13.2 °C 64 % 2 km/h (6 km/h) 0 mm0 mm 23.1 °C 23.4 °C 22.9 °C 21.7 °C 20000 m 0   0 cm 0 min 0 W/m² 1019.8 hPa
07:18 20.3 °C 12.8 °C 62 % 2 km/h (4 km/h) 0 mm0 mm 23.1 °C 23.4 °C 22.9 °C 21.7 °C 18510 m 0   0 cm 0 min 0 W/m² 1019.8 hPa
07:12 20.3 °C 12.8 °C 62 % 3 km/h (5 km/h) 0 mm0 mm 23.1 °C 23.5 °C 22.9 °C 21.7 °C 18510 m 0   0 cm 0 min 0 W/m² 1019.8 hPa
07:06 20.1 °C 12.6 °C 62 % 3 km/h (5 km/h) 0 mm0 mm 23.1 °C 23.4 °C 22.9 °C 21.7 °C 20000 m 0   0 cm 0 min 0 W/m² 1019.9 hPa
07:00 19.8 °C 12.5 °C 63 % 4 km/h (8 km/h) 0 mm0 mm 23.1 °C 23.5 °C 22.9 °C 21.7 °C 20000 m 0   0 cm 0 min 0 W/m² 1019.9 hPa
06:54 19.7 °C 12.9 °C 65 % 6 km/h (8 km/h) 0 mm0 mm 23.1 °C 23.5 °C 22.9 °C 21.7 °C 20000 m 0   0 cm 0 min 0 W/m² 1019.9 hPa
06:48 19.6 °C 12.8 °C 65 % 5 km/h (8 km/h) 0 mm0 mm 23.1 °C 23.5 °C 22.9 °C 21.7 °C 19840 m 0   0 cm 0 min 0 W/m² 1019.6 hPa
06:42 19.5 °C 13.2 °C 67 % 4 km/h (8 km/h) 0 mm0 mm 23.1 °C 23.5 °C 22.9 °C 21.7 °C 20000 m 0   0 cm 0 min 0 W/m² 1019.5 hPa
06:36 19.6 °C 13.5 °C 68 % 5 km/h (9 km/h) 0 mm0 mm 23.1 °C 23.5 °C 22.9 °C 21.7 °C 20000 m 0   0 cm 0 min 0 W/m² 1019.3 hPa
06:30 19.5 °C 12.3 °C 63 % 5 km/h (9 km/h) 0 mm0 mm 23.1 °C 23.5 °C 22.9 °C 21.7 °C 20000 m 0   0 cm 0 min 0 W/m² 1019.3 hPa
06:24 19.2 °C 14.2 °C 73 % 5 km/h (8 km/h) 0 mm0 mm 23.2 °C 23.5 °C 22.9 °C 21.7 °C 20000 m 0   0 cm 0 min 0 W/m² 1019.3 hPa
06:18 19.4 °C 14.2 °C 72 % 3 km/h (5 km/h) 0 mm0 mm 23.2 °C 23.5 °C 22.9 °C 21.7 °C 20000 m 0   0 cm 0 min 0 W/m² 1019.3 hPa
06:12 19.3 °C 13.5 °C 69 % 0 km/h (3 km/h) 0 mm0 mm 23.2 °C 23.6 °C 22.9 °C 21.7 °C 20000 m 0   0 cm 0 min 0 W/m² 1019.4 hPa
06:06 19.2 °C 13.1 °C 68 % 0 km/h (2 km/h) 0 mm0 mm 23.2 °C 23.6 °C 22.9 °C 21.7 °C 20000 m 0   0 cm 0 min 0 W/m² 1019.5 hPa
06:00 19.2 °C 12.7 °C 66 % 2 km/h (4 km/h) 0 mm0 mm 23.2 °C 23.5 °C 22.9 °C 21.7 °C 20000 m 0   0 cm 0 min 0 W/m² 1019.5 hPa
05:54 19.2 °C 13.1 °C 68 % 3 km/h (4 km/h) 0 mm0 mm 23.2 °C 23.6 °C 22.9 °C 21.7 °C 20000 m 0   0 cm 0 min 0 W/m² 1019.5 hPa
05:48 19.1 °C 13.1 °C 68 % 4 km/h (7 km/h) 0 mm0 mm 23.2 °C 23.6 °C 22.9 °C 21.7 °C 20000 m 0   0 cm 0 min 0 W/m² 1019.6 hPa
05:42 19.3 °C 13 °C 67 % 5 km/h (7 km/h) 0 mm0 mm 23.2 °C 23.6 °C 22.9 °C 21.7 °C 20000 m 0   0 cm 0 min 0 W/m² 1019.4 hPa
05:36 19.2 °C 12.9 °C 67 % 5 km/h (6 km/h) 0 mm0 mm 23.3 °C 23.6 °C 22.9 °C 21.7 °C 20000 m 0   0 cm 0 min 0 W/m² 1019.4 hPa
05:30 19.1 °C 13.1 °C 68 % 5 km/h (6 km/h) 0 mm0 mm 23.3 °C 23.6 °C 22.9 °C 21.7 °C 20000 m 0   0 cm 0 min 0 W/m² 1019.3 hPa
05:24 19.2 °C 13.6 °C 70 % 3 km/h (6 km/h) 0 mm0 mm 23.3 °C 23.6 °C 22.9 °C 21.7 °C 20000 m 0   0 cm 0 min 0 W/m² 1019.3 hPa
05:18 19 °C 13 °C 68 % 3 km/h (4 km/h) 0 mm0 mm 23.3 °C 23.6 °C 22.9 °C 21.7 °C 20000 m 0   0 cm 0 min 0 W/m² 1019.4 hPa
05:12 18.9 °C 13.5 °C 71 % 3 km/h (5 km/h) 0 mm0 mm 23.3 °C 23.7 °C 22.9 °C 21.7 °C 20000 m 0   0 cm 0 min 0 W/m² 1019.5 hPa
05:06 18.6 °C 12.8 °C 69 % 3 km/h (5 km/h) 0 mm0 mm 23.3 °C 23.7 °C 22.9 °C 21.7 °C 20000 m 0   0 cm 0 min 0 W/m² 1019.6 hPa
05:00 18.4 °C 12.8 °C 70 % 3 km/h (4 km/h) 0 mm0 mm 23.4 °C 23.7 °C 22.9 °C 21.7 °C 20000 m 0   0 cm 0 min 0 W/m² 1019.7 hPa
04:54 18.5 °C 13.1 °C 71 % 3 km/h (4 km/h) 0 mm0 mm 23.4 °C 23.7 °C 22.9 °C 21.7 °C 20000 m 0   0 cm 0 min 0 W/m² 1019.7 hPa
04:48 18.6 °C 13.2 °C 71 % 2 km/h (4 km/h) 0 mm0 mm 23.4 °C 23.7 °C 22.9 °C 21.7 °C 20000 m 0   0 cm 0 min 0 W/m² 1019.6 hPa
04:42 18.6 °C 13.7 °C 73 % 0 km/h (2 km/h) 0 mm0 mm 23.4 °C 23.7 °C 22.9 °C 21.7 °C 20000 m 0   0 cm 0 min 0 W/m² 1019.4 hPa
04:36 18.7 °C 12.9 °C 69 % 0 km/h (0 km/h) 0 mm0 mm 23.4 °C 23.7 °C 22.9 °C 21.7 °C 20000 m 0   0 cm 0 min 0 W/m² 1019.4 hPa
04:30 18.6 °C 13 °C 70 % 0 km/h (3 km/h) 0 mm0 mm 23.4 °C 23.8 °C 22.9 °C 21.7 °C 20000 m 0   0 cm 0 min 0 W/m² 1019.6 hPa
04:24 18.6 °C 12.6 °C 68 % 3 km/h (4 km/h) 0 mm0 mm 23.4 °C 23.8 °C 22.9 °C 21.7 °C 20000 m 0   0 cm 0 min 0 W/m² 1019.5 hPa
04:18 18.4 °C 12.6 °C 69 % 2 km/h (4 km/h) 0 mm0 mm 23.5 °C 23.8 °C 22.9 °C 21.7 °C 20000 m 0   0 cm 0 min 0 W/m² 1019.6 hPa
04:12 18.4 °C 13.5 °C 73 % 0 km/h (2 km/h) 0 mm0 mm 23.5 °C 23.8 °C 22.9 °C 21.7 °C 20000 m 0   0 cm 0 min 0 W/m² 1019.7 hPa
04:06 18.5 °C 13.1 °C 71 % 2 km/h (3 km/h) 0 mm0 mm 23.5 °C 23.8 °C 22.9 °C 21.7 °C 20000 m 0   0 cm 0 min 0 W/m² 1019.7 hPa
04:00 18.4 °C 12.6 °C 69 % 2 km/h (3 km/h) 0 mm0 mm 23.5 °C 23.8 °C 22.9 °C 21.7 °C 20000 m 0   0 cm 0 min 0 W/m² 1019.8 hPa
03:54 18.3 °C 12.7 °C 70 % 0 km/h (3 km/h) 0 mm0 mm 23.5 °C 23.8 °C 22.9 °C 21.7 °C 20000 m 0   0 cm 0 min 0 W/m² 1019.8 hPa
03:48 18.1 °C 12.1 °C 68 % 0 km/h (0 km/h) 0 mm0 mm 23.5 °C 23.8 °C 22.9 °C 21.7 °C 20000 m 0   0 cm 0 min 0 W/m² 1019.9 hPa
03:42 18 °C 12 °C 68 % 0 km/h (3 km/h) 0 mm0 mm 23.6 °C 23.8 °C 22.9 °C 21.7 °C 20000 m 0   0 cm 0 min 0 W/m² 1020 hPa
03:36 17.8 °C 12 °C 69 % 3 km/h (4 km/h) 0 mm0 mm 23.6 °C 23.9 °C 22.9 °C 21.7 °C 20000 m 0   0 cm 0 min 0 W/m² 1020 hPa
03:30 17.9 °C 12.6 °C 71 % 3 km/h (4 km/h) 0 mm0 mm 23.6 °C 23.9 °C 22.9 °C 21.7 °C 20000 m 0   0 cm 0 min 0 W/m² 1020.1 hPa
03:24 18.1 °C 12.3 °C 69 % 3 km/h (4 km/h) 0 mm0 mm 23.6 °C 23.9 °C 22.9 °C 21.7 °C 20000 m 0   0 cm 0 min 0 W/m² 1020.1 hPa
03:18 18.1 °C 12.1 °C 68 % 3 km/h (4 km/h) 0 mm0 mm 23.6 °C 23.9 °C 22.9 °C 21.7 °C 20000 m 0   0 cm 0 min 0 W/m² 1020.1 hPa
03:12 18.3 °C 12.3 °C 68 % 3 km/h (4 km/h) 0 mm0 mm 23.7 °C 23.9 °C 22.9 °C 21.7 °C 20000 m 0   0 cm 0 min 0 W/m² 1020.1 hPa
03:06 18.5 °C 12 °C 66 % 3 km/h (4 km/h) 0 mm0 mm 23.7 °C 23.9 °C 22.9 °C 21.7 °C 20000 m 0   0 cm 0 min 0 W/m² 1020.1 hPa
03:00 18.3 °C 11.8 °C 66 % 3 km/h (4 km/h) 0 mm0 mm 23.8 °C 23.9 °C 22.9 °C 21.7 °C 20000 m 0   0 cm 0 min 0 W/m² 1020.1 hPa
02:54 18 °C 12 °C 68 % 2 km/h (3 km/h) 0 mm0 mm 23.8 °C 23.9 °C 22.9 °C 21.7 °C 20000 m 0   0 cm 0 min 0 W/m² 1020.2 hPa
02:48 18 °C 12 °C 68 % 2 km/h (3 km/h) 0 mm0 mm 23.8 °C 24 °C 22.9 °C 21.7 °C 20000 m 0   0 cm 0 min 0 W/m² 1020.2 hPa
02:42 18 °C 12.2 °C 69 % 2 km/h (3 km/h) 0 mm0 mm 23.8 °C 23.9 °C 22.8 °C 21.7 °C 20000 m 0   0 cm 0 min 0 W/m² 1020.2 hPa
02:36 18 °C 12 °C 68 % 2 km/h (4 km/h) 0 mm0 mm 23.8 °C 24 °C 22.9 °C 21.7 °C 20000 m 0   0 cm 0 min 0 W/m² 1020.1 hPa
02:30 18 °C 12.2 °C 69 % 3 km/h (4 km/h) 0 mm0 mm 23.9 °C 24 °C 22.9 °C 21.7 °C 20000 m 0   0 cm 0 min 0 W/m² 1020.1 hPa
02:24 18 °C 12 °C 68 % 3 km/h (4 km/h) 0 mm0 mm 23.9 °C 24 °C 22.8 °C 21.7 °C 20000 m 0   0 cm 0 min 0 W/m² 1020.2 hPa
02:18 18 °C 12 °C 68 % 2 km/h (3 km/h) 0 mm0 mm 23.9 °C 24 °C 22.9 °C 21.7 °C 20000 m 0   0 cm 0 min 0 W/m² 1020.3 hPa
02:12 18 °C 12 °C 68 % 2 km/h (3 km/h) 0 mm0 mm 23.9 °C 24 °C 22.8 °C 21.7 °C 20000 m 0   0 cm 0 min 0 W/m² 1020.4 hPa
02:06 17.9 °C 12.1 °C 69 % 0 km/h (2 km/h) 0 mm0 mm 24 °C 24 °C 22.9 °C 21.7 °C 20000 m 0   0 cm 0 min 0 W/m² 1020.4 hPa
02:00 17.9 °C 12.6 °C 71 % 0 km/h (0 km/h) 0 mm0 mm 24 °C 24 °C 22.8 °C 21.7 °C 20000 m 0   0 cm 0 min 0 W/m² 1020.3 hPa
01:54 17.9 °C 12.1 °C 69 % 0 km/h (2 km/h) 0 mm0 mm 24 °C 24.1 °C 22.8 °C 21.7 °C 20000 m 0   0 cm 0 min 0 W/m² 1020.3 hPa
01:48 18 °C 11.8 °C 67 % 0 km/h (2 km/h) 0 mm0 mm 24 °C 24.1 °C 22.8 °C 21.7 °C 20000 m 0   0 cm 0 min 0 W/m² 1020.3 hPa
01:42 18 °C 11.8 °C 67 % 0 km/h (2 km/h) 0 mm0 mm 24 °C 24.1 °C 22.8 °C 21.7 °C 20000 m 0   0 cm 0 min 0 W/m² 1020.4 hPa
01:36 18.2 °C 12.2 °C 68 % 0 km/h (2 km/h) 0 mm0 mm 24.1 °C 24.1 °C 22.8 °C 21.7 °C 20000 m 0   0 cm 0 min 0 W/m² 1020.4 hPa
01:30 18.3 °C 12.1 °C 67 % 0 km/h (2 km/h) 0 mm0 mm 24.1 °C 24.1 °C 22.8 °C 21.7 °C 20000 m 0   0 cm 0 min 0 W/m² 1020.4 hPa
01:24 18.2 °C 11.7 °C 66 % 0 km/h (3 km/h) 0 mm0 mm 24.2 °C 24.1 °C 22.8 °C 21.7 °C 20000 m 0   0 cm 0 min 0 W/m² 1020.4 hPa
01:18 18.4 °C 12.2 °C 67 % 0 km/h (2 km/h) 0 mm0 mm 24.2 °C 24.1 °C 22.8 °C 21.7 °C 20000 m 0   0 cm 0 min 0 W/m² 1020.4 hPa
01:12 18.4 °C 11.7 °C 65 % 0 km/h (2 km/h) 0 mm0 mm 24.2 °C 24.1 °C 22.8 °C 21.7 °C 20000 m 0   0 cm 0 min 0 W/m² 1020.4 hPa
01:06 18.3 °C 11.1 °C 63 % 2 km/h (2 km/h) 0 mm0 mm 24.2 °C 24.1 °C 22.8 °C 21.7 °C 20000 m 0   0 cm 0 min 0 W/m² 1020.4 hPa
01:00 18.3 °C 11.6 °C 65 % 3 km/h (4 km/h) 0 mm0 mm 24.3 °C 24.2 °C 22.8 °C 21.7 °C 20000 m 0   0 cm 0 min 0 W/m² 1020.3 hPa
00:54 18.5 °C 12 °C 66 % 3 km/h (4 km/h) 0 mm0 mm 24.3 °C 24.2 °C 22.8 °C 21.7 °C 20000 m 0   0 cm 0 min 0 W/m² 1020.3 hPa
00:48 18.8 °C 12.1 °C 65 % 2 km/h (3 km/h) 0 mm0 mm 24.3 °C 24.2 °C 22.8 °C 21.7 °C 20000 m 0   0 cm 0 min 0 W/m² 1020.2 hPa
00:42 19 °C 11.8 °C 63 % 0 km/h (2 km/h) 0 mm0 mm 24.3 °C 24.2 °C 22.8 °C 21.7 °C 20000 m 0   0 cm 0 min 0 W/m² 1020.1 hPa
00:36 18.9 °C 11.7 °C 63 % 0 km/h (2 km/h) 0 mm0 mm 24.4 °C 24.2 °C 22.8 °C 21.7 °C 20000 m 0   0 cm 0 min 0 W/m² 1020.3 hPa
00:30 18.9 °C 11.7 °C 63 % 0 km/h (3 km/h) 0 mm0 mm 24.4 °C 24.2 °C 22.8 °C 21.7 °C 20000 m 0   0 cm 0 min 0 W/m² 1020.3 hPa
00:24 19 °C 12 °C 64 % 2 km/h (3 km/h) 0 mm0 mm 24.4 °C 24.2 °C 22.8 °C 21.7 °C 20000 m 0   0 cm 0 min 0 W/m² 1020.2 hPa
00:18 19.3 °C 12.1 °C 63 % 0 km/h (3 km/h) 0 mm0 mm 24.4 °C 24.2 °C 22.8 °C 21.8 °C 20000 m 0   0 cm 0 min 0 W/m² 1020.2 hPa
00:12 19.4 °C 12.2 °C 63 % 2 km/h (3 km/h) 0 mm0 mm 24.5 °C 24.2 °C 22.8 °C 21.7 °C 20000 m 0   0 cm 0 min 0 W/m² 1020.2 hPa
00:06 19.6 °C 11.9 °C 61 % 2 km/h (3 km/h) 0 mm0 mm 24.6 °C 24.2 °C 22.8 °C 21.7 °C 20000 m 0   0 cm 0 min 0 W/m² 1020.2 hPa
00:00 19.5 °C 11.3 °C 59 % 2 km/h (3 km/h) 0 mm0 mm 24.6 °C 24.2 °C 22.8 °C 21.7 °C 20000 m 0   0 cm 0 min 0 W/m² 1020.2 hPa

Données via Météo-France

Relevés météo à Auch

Cette page rassemble les observations de la station de Auch : température, humidité, vent, précipitations et pression atmosphérique. Les graphiques facilitent le suivi de la journée, tandis que le tableau donne accès aux mesures horaires et infra-horaires disponibles.

Pour replacer ces mesures dans leur contexte, consultez la climatologie de Auch ainsi que ses normales et records. Retrouvez aussi la carte des observations météo en temps réel.